createdAt,value
2017-10-04T00:01:14.052Z,77.80
2017-10-04T00:03:41.662Z,78.30
2017-10-04T00:06:09.301Z,78.10
2017-10-04T00:08:36.911Z,77.70
2017-10-04T00:11:04.549Z,78.40
2017-10-04T00:13:32.912Z,79.10
2017-10-04T00:16:00.545Z,79.10
2017-10-04T00:18:28.163Z,78.90
2017-10-04T00:20:55.802Z,79.00
2017-10-04T00:23:23.396Z,78.50
2017-10-04T00:25:51.027Z,78.30
2017-10-04T00:28:18.632Z,77.20
2017-10-04T00:30:46.285Z,77.40
2017-10-04T00:33:13.880Z,77.80
2017-10-04T00:35:42.271Z,78.10
2017-10-04T00:38:09.889Z,78.80
2017-10-04T00:40:37.505Z,78.00
2017-10-04T00:43:05.998Z,77.30
2017-10-04T00:45:34.394Z,77.40
2017-10-04T00:48:02.007Z,77.50
2017-10-04T00:50:29.635Z,77.30
2017-10-04T00:52:57.246Z,77.40
2017-10-04T00:55:24.861Z,77.90
2017-10-04T00:57:52.520Z,77.90
2017-10-04T01:00:20.137Z,77.90
2017-10-04T01:02:47.760Z,78.20
2017-10-04T01:05:15.384Z,78.70
2017-10-04T01:07:43.038Z,78.00
2017-10-04T01:10:11.405Z,78.00
2017-10-04T01:12:39.837Z,77.90
2017-10-04T01:15:07.476Z,77.90
2017-10-04T01:17:35.092Z,77.20
2017-10-04T01:20:02.692Z,77.80
2017-10-04T01:22:30.329Z,77.40
2017-10-04T01:24:58.704Z,75.40
2017-10-04T01:27:27.111Z,75.20
2017-10-04T01:29:54.721Z,75.70
2017-10-04T01:32:22.373Z,76.10
2017-10-04T01:34:49.972Z,75.50
2017-10-04T01:37:18.380Z,76.00
2017-10-04T01:39:45.992Z,76.00
2017-10-04T01:42:13.613Z,76.10
2017-10-04T01:44:41.216Z,75.70
2017-10-04T01:47:08.847Z,75.00
2017-10-04T01:49:36.447Z,75.40
2017-10-04T01:52:04.041Z,76.10
2017-10-04T01:54:32.444Z,75.50
2017-10-04T01:57:00.052Z,75.40
2017-10-04T01:59:28.447Z,75.20
2017-10-04T02:01:56.062Z,75.20
2017-10-04T02:04:23.693Z,75.10
2017-10-04T02:06:51.303Z,75.10
2017-10-04T02:09:18.922Z,75.20
2017-10-04T02:11:47.433Z,75.80
2017-10-04T02:14:15.054Z,75.60
2017-10-04T02:16:42.661Z,74.80
2017-10-04T02:19:10.287Z,75.10
2017-10-04T02:21:37.913Z,74.90
2017-10-04T02:24:06.302Z,75.40
2017-10-04T02:26:33.904Z,75.40
2017-10-04T02:29:01.923Z,75.00
2017-10-04T02:31:29.703Z,75.60
2017-10-04T02:33:58.090Z,75.60
2017-10-04T02:36:25.715Z,75.50
2017-10-04T02:38:54.112Z,75.80
2017-10-04T02:41:21.727Z,75.80
2017-10-04T02:43:49.342Z,75.50
2017-10-04T02:46:16.981Z,75.70
2017-10-04T02:48:45.345Z,75.80
2017-10-04T02:51:12.989Z,75.80
2017-10-04T02:53:40.589Z,75.40
2017-10-04T02:56:08.976Z,76.50
2017-10-04T02:58:36.596Z,76.40
2017-10-04T03:01:04.234Z,76.40
2017-10-04T03:03:31.857Z,75.20
2017-10-04T03:06:00.241Z,75.50
2017-10-04T03:08:27.861Z,75.50
2017-10-04T03:10:56.294Z,75.10
2017-10-04T03:13:23.884Z,75.80
2017-10-04T03:15:51.515Z,75.80
2017-10-04T03:18:19.101Z,76.60
2017-10-04T03:20:46.730Z,75.80
2017-10-04T03:23:14.330Z,75.90
2017-10-04T03:25:41.955Z,76.40
2017-10-04T03:28:09.912Z,76.10
2017-10-04T03:30:38.300Z,75.90
2017-10-04T03:33:05.933Z,75.80
2017-10-04T03:35:33.590Z,74.80
2017-10-04T03:38:01.190Z,75.00
2017-10-04T03:40:28.810Z,76.00
2017-10-04T03:42:56.434Z,75.30
2017-10-04T03:45:24.036Z,75.20
2017-10-04T03:47:52.433Z,75.60
2017-10-04T03:50:20.036Z,75.30
2017-10-04T03:52:47.656Z,74.50
2017-10-04T03:55:15.252Z,75.20
2017-10-04T03:57:42.883Z,74.90
2017-10-04T04:00:10.509Z,75.00
2017-10-04T04:02:38.136Z,75.80
2017-10-04T04:05:06.124Z,75.20
2017-10-04T04:07:33.759Z,75.60
2017-10-04T04:10:01.368Z,75.50
2017-10-04T04:12:28.990Z,76.30
2017-10-04T04:14:56.590Z,76.00
2017-10-04T04:17:24.227Z,76.60
2017-10-04T04:19:51.821Z,76.10
2017-10-04T04:22:20.217Z,76.90
2017-10-04T04:24:47.838Z,76.80
2017-10-04T04:27:15.496Z,76.00
2017-10-04T04:29:44.626Z,74.90
2017-10-04T04:32:12.988Z,74.90
2017-10-04T04:34:40.615Z,74.90
2017-10-04T04:37:08.237Z,75.30
2017-10-04T04:39:35.853Z,75.30
2017-10-04T04:42:03.446Z,75.50
2017-10-04T04:44:32.419Z,75.90
2017-10-04T04:47:00.029Z,75.90
2017-10-04T04:49:27.682Z,75.70
2017-10-04T04:51:55.505Z,75.90
2017-10-04T04:54:23.128Z,75.40
2017-10-04T04:56:50.737Z,76.00
2017-10-04T04:59:19.192Z,75.60
2017-10-04T05:01:46.809Z,75.30
2017-10-04T05:04:15.318Z,75.40
2017-10-04T05:06:43.033Z,75.30
2017-10-04T05:09:11.980Z,74.50
2017-10-04T05:11:39.715Z,74.50
2017-10-04T05:14:07.352Z,75.00
2017-10-04T05:16:35.745Z,76.00
2017-10-04T05:19:03.956Z,75.90
2017-10-04T05:21:31.561Z,76.30
2017-10-04T05:23:59.209Z,75.80
2017-10-04T05:26:26.815Z,75.10
2017-10-04T05:28:54.430Z,75.20
2017-10-04T05:31:23.304Z,74.70
2017-10-04T05:33:50.902Z,74.60
2017-10-04T05:36:18.665Z,74.40
2017-10-04T05:38:46.309Z,75.20
2017-10-04T05:41:14.766Z,76.20
2017-10-04T05:43:42.377Z,76.20
2017-10-04T05:46:10.774Z,76.10
2017-10-04T05:48:38.365Z,76.00
2017-10-04T05:51:06.325Z,75.60
2017-10-04T05:53:33.936Z,76.00
2017-10-04T05:56:01.726Z,75.60
2017-10-04T05:58:29.317Z,76.50
2017-10-04T06:00:56.939Z,76.00
2017-10-04T06:03:24.575Z,76.40
2017-10-04T06:05:52.197Z,75.90
2017-10-04T06:08:19.799Z,75.30
2017-10-04T06:10:47.426Z,74.40
2017-10-04T06:13:15.025Z,74.50
2017-10-04T06:15:42.657Z,74.10
2017-10-04T06:18:10.239Z,74.60
2017-10-04T06:20:37.876Z,74.60
2017-10-04T06:23:05.585Z,74.10
2017-10-04T06:25:33.965Z,73.80
2017-10-04T06:28:01.616Z,73.80
2017-10-04T06:30:29.232Z,73.40
2017-10-04T06:32:56.848Z,73.30
2017-10-04T06:35:25.218Z,72.50
2017-10-04T06:37:53.597Z,72.50
2017-10-04T06:40:21.964Z,72.30
2017-10-04T06:42:49.582Z,72.30
2017-10-04T06:45:17.184Z,72.40
2017-10-04T06:47:44.818Z,72.10
2017-10-04T06:50:12.418Z,72.30
2017-10-04T06:52:40.068Z,70.90
2017-10-04T06:55:07.821Z,70.30
2017-10-04T06:57:35.441Z,70.10
2017-10-04T07:00:03.235Z,69.80
2017-10-04T07:02:30.913Z,69.30
2017-10-04T07:04:58.520Z,68.80
2017-10-04T07:07:26.960Z,67.50
2017-10-04T07:09:54.559Z,66.40
2017-10-04T07:12:22.217Z,64.50
2017-10-04T07:14:49.810Z,64.40
2017-10-04T07:17:17.444Z,65.10
2017-10-04T07:19:45.850Z,62.60
2017-10-04T07:22:14.200Z,60.10
2017-10-04T07:24:41.826Z,58.80
2017-10-04T07:27:09.446Z,57.80
2017-10-04T07:29:37.079Z,56.90
2017-10-04T07:32:04.691Z,57.00
2017-10-04T07:34:32.308Z,55.80
2017-10-04T07:36:59.927Z,54.90
2017-10-04T07:39:27.549Z,53.80
2017-10-04T07:41:56.014Z,52.70
2017-10-04T07:44:23.644Z,52.60
2017-10-04T07:46:52.019Z,55.40
2017-10-04T07:49:19.844Z,56.00
2017-10-04T07:51:47.442Z,57.70
2017-10-04T07:54:15.077Z,58.70
2017-10-04T07:56:42.684Z,59.40
2017-10-04T07:59:10.325Z,59.50
2017-10-04T08:01:37.966Z,61.70
2017-10-04T08:04:05.742Z,62.40
2017-10-04T08:06:33.417Z,63.30
2017-10-04T08:09:02.207Z,64.90
2017-10-04T08:11:30.672Z,64.80
2017-10-04T08:13:58.992Z,64.70
2017-10-04T08:16:27.034Z,63.40
2017-10-04T08:18:55.429Z,64.00
2017-10-04T08:21:23.032Z,64.50
2017-10-04T08:23:50.653Z,66.30
2017-10-04T08:26:18.256Z,65.30
2017-10-04T08:28:45.872Z,65.20
2017-10-04T08:31:13.500Z,65.80
2017-10-04T08:33:41.141Z,64.70
2017-10-04T08:36:08.745Z,65.50
2017-10-04T08:38:37.141Z,63.70
2017-10-04T08:41:04.760Z,63.70
2017-10-04T08:43:33.088Z,65.60
2017-10-04T08:46:00.718Z,65.10
2017-10-04T08:48:37.978Z,66.10
2017-10-04T08:51:05.604Z,66.10
2017-10-04T08:53:33.222Z,64.70
2017-10-04T08:56:01.629Z,65.50
2017-10-04T08:58:29.401Z,65.60
2017-10-04T09:00:57.032Z,64.90
2017-10-04T09:03:26.312Z,64.20
2017-10-04T09:06:02.813Z,64.10
2017-10-04T09:08:31.167Z,63.90
2017-10-04T09:10:59.719Z,63.90
2017-10-04T09:13:27.330Z,65.30
2017-10-04T09:15:55.717Z,65.40
2017-10-04T09:18:23.329Z,65.30
2017-10-04T09:20:50.982Z,64.80
2017-10-04T09:23:18.569Z,64.80
2017-10-04T09:25:46.377Z,65.00
2017-10-04T09:28:14.258Z,65.20
2017-10-04T09:30:41.939Z,65.30
2017-10-04T09:33:09.555Z,67.00
2017-10-04T09:35:37.177Z,65.60
2017-10-04T09:38:04.828Z,65.90
2017-10-04T09:40:32.425Z,65.70
2017-10-04T09:43:00.812Z,65.40
2017-10-04T09:45:28.440Z,65.30
2017-10-04T09:47:56.100Z,65.00
2017-10-04T09:50:23.730Z,65.20
2017-10-04T09:52:51.432Z,64.80
2017-10-04T09:55:19.055Z,65.10
2017-10-04T09:57:46.685Z,65.10
2017-10-04T10:00:15.053Z,64.50
2017-10-04T10:02:43.446Z,65.70
2017-10-04T10:05:11.045Z,65.50
2017-10-04T10:07:38.688Z,65.50
2017-10-04T10:10:07.106Z,65.20
2017-10-04T10:12:40.784Z,64.50
2017-10-04T10:15:08.421Z,65.20
2017-10-04T10:17:36.712Z,65.20
2017-10-04T10:20:04.780Z,63.80
2017-10-04T10:22:32.413Z,63.30
2017-10-04T10:25:00.785Z,62.40
2017-10-04T10:27:28.433Z,62.30
2017-10-04T10:29:56.024Z,62.10
2017-10-04T10:32:24.407Z,62.40
2017-10-04T10:34:52.015Z,62.40
2017-10-04T10:37:19.647Z,62.60
2017-10-04T10:39:47.248Z,60.00
2017-10-04T10:42:16.497Z,59.70
2017-10-04T10:44:44.096Z,59.70
2017-10-04T10:47:11.714Z,61.10
2017-10-04T10:49:39.322Z,60.00
2017-10-04T10:52:06.973Z,60.90
2017-10-04T10:54:34.578Z,61.40
2017-10-04T10:57:03.339Z,62.60
2017-10-04T10:59:31.215Z,62.60
2017-10-04T11:01:58.817Z,60.40
2017-10-04T11:04:26.544Z,60.60
2017-10-04T11:06:54.144Z,60.40
2017-10-04T11:09:21.837Z,59.80
2017-10-04T11:11:49.435Z,60.40
2017-10-04T11:14:17.056Z,60.90
2017-10-04T11:16:44.688Z,60.50
2017-10-04T11:19:12.317Z,60.90
2017-10-04T11:21:39.938Z,61.20
2017-10-04T11:24:07.584Z,60.70
2017-10-04T11:26:36.551Z,61.40
2017-10-04T11:29:04.971Z,62.00
2017-10-04T11:31:32.589Z,62.00
2017-10-04T11:34:00.955Z,63.50
2017-10-04T11:36:29.361Z,63.80
2017-10-04T11:38:56.956Z,63.10
2017-10-04T11:41:24.593Z,62.50
2017-10-04T11:43:52.187Z,62.50
2017-10-04T11:46:19.808Z,61.10
2017-10-04T11:48:47.439Z,62.10
2017-10-04T11:51:15.837Z,62.80
2017-10-04T11:53:43.460Z,62.00
2017-10-04T11:56:11.357Z,62.80
2017-10-04T11:58:41.162Z,63.50
2017-10-04T12:01:09.266Z,63.40
2017-10-04T12:03:37.427Z,63.90
2017-10-04T12:06:05.054Z,63.50
2017-10-04T12:08:32.686Z,64.70
2017-10-04T12:11:00.310Z,64.50
2017-10-04T12:13:28.869Z,64.20
2017-10-04T12:15:56.484Z,64.40
2017-10-04T12:18:24.152Z,62.80
2017-10-04T12:20:51.823Z,63.00
2017-10-04T12:23:19.457Z,63.70
2017-10-04T12:25:47.066Z,63.50
2017-10-04T12:28:15.544Z,63.70
2017-10-04T12:30:44.405Z,63.50
2017-10-04T12:33:12.025Z,64.00
2017-10-04T12:35:39.625Z,63.80
2017-10-04T12:38:07.280Z,63.60
2017-10-04T12:40:35.727Z,63.10
2017-10-04T12:43:04.353Z,63.30
2017-10-04T12:45:32.070Z,63.30
2017-10-04T12:48:00.480Z,63.10
2017-10-04T12:50:28.099Z,63.10
2017-10-04T12:52:56.483Z,63.50
2017-10-04T12:55:24.990Z,64.40
2017-10-04T12:57:52.608Z,64.40
2017-10-04T13:00:20.201Z,63.30
2017-10-04T13:02:48.783Z,63.20
2017-10-04T13:05:16.397Z,63.00
2017-10-04T13:07:44.017Z,62.20
2017-10-04T13:10:11.637Z,62.40
2017-10-04T13:12:39.276Z,62.20
2017-10-04T13:15:06.881Z,62.80
2017-10-04T13:17:35.266Z,64.90
2017-10-04T13:20:03.149Z,64.90
2017-10-04T13:22:30.781Z,63.50
2017-10-04T13:24:59.151Z,63.20
2017-10-04T13:27:27.551Z,62.40
2017-10-04T13:29:55.918Z,63.40
2017-10-04T13:32:24.308Z,63.10
2017-10-04T13:34:52.046Z,62.90
2017-10-04T13:37:19.678Z,62.10
2017-10-04T13:39:47.363Z,61.80
2017-10-04T13:42:15.019Z,62.70
2017-10-04T13:44:42.634Z,63.10
2017-10-04T13:47:10.267Z,62.90
2017-10-04T13:49:38.644Z,64.10
2017-10-04T13:52:07.053Z,65.30
2017-10-04T13:54:34.664Z,65.30
2017-10-04T13:57:02.316Z,63.30
2017-10-04T13:59:30.821Z,64.30
2017-10-04T14:01:58.425Z,63.60
2017-10-04T14:04:26.042Z,64.30
2017-10-04T14:06:55.964Z,63.80
2017-10-04T14:09:24.363Z,64.90
2017-10-04T14:11:51.959Z,64.80
2017-10-04T14:14:19.625Z,63.90
2017-10-04T14:16:48.046Z,63.40
2017-10-04T14:19:16.433Z,63.80
2017-10-04T14:21:44.827Z,65.20
2017-10-04T14:24:12.440Z,65.20
2017-10-04T14:26:40.037Z,62.30
2017-10-04T14:29:07.668Z,63.10
2017-10-04T14:31:35.286Z,63.50
2017-10-04T14:34:02.907Z,64.80
2017-10-04T14:36:31.267Z,65.70
2017-10-04T14:38:58.896Z,65.70
2017-10-04T14:41:26.516Z,64.40
2017-10-04T14:43:54.907Z,63.50
2017-10-04T14:46:22.520Z,63.50
2017-10-04T14:48:50.148Z,64.20
2017-10-04T14:51:17.752Z,62.60
2017-10-04T14:53:45.373Z,62.60
2017-10-04T14:56:12.972Z,62.60
2017-10-04T14:58:40.596Z,63.30
2017-10-04T15:01:08.191Z,62.80
2017-10-04T15:03:35.833Z,63.20
2017-10-04T15:06:03.457Z,64.00
2017-10-04T15:08:31.061Z,63.20
2017-10-04T15:10:59.494Z,63.00
2017-10-04T15:13:27.097Z,63.00
2017-10-04T15:15:54.720Z,63.70
2017-10-04T15:18:22.320Z,62.10
2017-10-04T15:20:49.955Z,64.10
2017-10-04T15:23:17.552Z,64.20
2017-10-04T15:25:45.419Z,63.60
2017-10-04T15:28:13.235Z,63.80
2017-10-04T15:30:40.882Z,62.90
2017-10-04T15:33:09.251Z,62.40
2017-10-04T15:35:36.884Z,62.30
2017-10-04T15:38:04.492Z,63.40
2017-10-04T15:40:32.117Z,63.10
2017-10-04T15:43:00.949Z,64.00
2017-10-04T15:45:28.590Z,64.10
2017-10-04T15:47:56.962Z,64.60
2017-10-04T15:50:24.580Z,64.50
2017-10-04T15:52:52.192Z,64.10
2017-10-04T15:55:19.842Z,65.10
2017-10-04T15:57:47.459Z,64.40
2017-10-04T16:00:15.132Z,64.60
2017-10-04T16:02:42.737Z,63.50
2017-10-04T16:05:11.156Z,62.20
2017-10-04T16:07:38.760Z,62.20
2017-10-04T16:10:07.749Z,62.70
2017-10-04T16:12:36.487Z,63.60
2017-10-04T16:15:04.498Z,64.00
2017-10-04T16:17:32.088Z,64.60
2017-10-04T16:19:59.746Z,64.70
2017-10-04T16:22:27.348Z,64.00
2017-10-04T16:24:54.957Z,63.80
2017-10-04T16:27:22.627Z,64.40
2017-10-04T16:29:50.229Z,63.40
2017-10-04T16:32:17.892Z,63.80
2017-10-04T16:34:45.581Z,64.80
2017-10-04T16:37:13.207Z,63.10
2017-10-04T16:39:40.808Z,64.20
2017-10-04T16:42:08.545Z,63.80
2017-10-04T16:44:36.185Z,65.20
2017-10-04T16:47:03.952Z,64.20
2017-10-04T16:49:31.660Z,63.30
2017-10-04T16:51:59.295Z,63.00
2017-10-04T16:54:26.893Z,64.50
2017-10-04T16:56:54.577Z,63.60
2017-10-04T16:59:22.940Z,64.70
2017-10-04T17:01:51.198Z,64.70
2017-10-04T17:04:18.801Z,65.20
2017-10-04T17:06:47.188Z,65.40
2017-10-04T17:09:14.836Z,66.10
2017-10-04T17:11:43.227Z,63.80
2017-10-04T17:14:10.845Z,63.80
2017-10-04T17:16:38.464Z,63.70
2017-10-04T17:19:06.160Z,63.70
2017-10-04T17:21:34.045Z,64.80
2017-10-04T17:24:02.376Z,65.50
2017-10-04T17:26:30.107Z,65.20
2017-10-04T17:28:58.468Z,64.30
2017-10-04T17:31:26.114Z,64.30
2017-10-04T17:33:53.737Z,65.00
2017-10-04T17:36:21.992Z,64.70
2017-10-04T17:38:49.592Z,64.30
2017-10-04T17:41:17.253Z,64.90
2017-10-04T17:43:44.860Z,65.10
2017-10-04T17:46:12.647Z,64.90
2017-10-04T17:48:40.640Z,64.70
2017-10-04T17:51:08.317Z,64.90
2017-10-04T17:53:35.960Z,65.50
2017-10-04T17:56:03.614Z,65.40
2017-10-04T17:58:31.272Z,64.60
2017-10-04T18:00:58.885Z,65.70
2017-10-04T18:03:26.535Z,65.70
2017-10-04T18:05:54.146Z,64.70
2017-10-04T18:08:21.857Z,65.80
2017-10-04T18:10:49.553Z,65.20
2017-10-04T18:13:17.995Z,64.70
2017-10-04T18:15:46.394Z,64.20
2017-10-04T18:18:14.036Z,64.20
2017-10-04T18:20:41.671Z,64.40
2017-10-04T18:23:09.323Z,64.40
2017-10-04T18:25:36.931Z,65.00
2017-10-04T18:28:04.579Z,65.30
2017-10-04T18:30:32.183Z,66.20
2017-10-04T18:33:00.573Z,65.00
2017-10-04T18:35:28.181Z,65.00
2017-10-04T18:37:55.803Z,65.20
2017-10-04T18:40:23.447Z,65.10
2017-10-04T18:42:51.836Z,64.60
2017-10-04T18:45:21.430Z,64.70
2017-10-04T18:47:49.052Z,64.70
2017-10-04T18:50:17.551Z,65.30
2017-10-04T18:52:45.174Z,64.60
2017-10-04T18:55:14.018Z,64.90
2017-10-04T18:57:42.376Z,64.40
2017-10-04T19:00:10.018Z,65.00
2017-10-04T19:02:38.037Z,64.40
2017-10-04T19:05:06.432Z,65.90
2017-10-04T19:07:34.023Z,65.90
2017-10-04T19:10:02.591Z,65.70
2017-10-04T19:12:30.820Z,65.70
2017-10-04T19:14:58.696Z,66.40
2017-10-04T19:17:27.061Z,64.60
2017-10-04T19:19:54.704Z,64.60
2017-10-04T19:22:22.804Z,65.70
2017-10-04T19:24:51.184Z,65.70
2017-10-04T19:27:19.900Z,64.70
2017-10-04T19:29:48.284Z,64.60
2017-10-04T19:32:16.351Z,65.20
2017-10-04T19:34:45.216Z,64.80
2017-10-04T19:37:13.032Z,65.50
2017-10-04T19:39:40.653Z,64.20
2017-10-04T19:42:09.021Z,65.10
2017-10-04T19:44:37.593Z,66.10
2017-10-04T19:47:06.306Z,66.10
2017-10-04T19:49:34.028Z,65.00
2017-10-04T19:52:01.665Z,65.70
2017-10-04T19:54:30.674Z,65.80
2017-10-04T19:56:58.305Z,65.80
2017-10-04T19:59:25.920Z,65.50
2017-10-04T20:01:53.592Z,65.60
2017-10-04T20:04:23.052Z,65.10
2017-10-04T20:06:51.438Z,65.70
2017-10-04T20:09:19.114Z,65.70
2017-10-04T20:11:46.862Z,65.80
2017-10-04T20:14:14.939Z,65.80
2017-10-04T20:16:42.561Z,65.00
2017-10-04T20:19:10.166Z,64.20
2017-10-04T20:21:37.921Z,64.80
2017-10-04T20:24:08.377Z,65.20
2017-10-04T20:26:36.048Z,64.60
2017-10-04T20:29:04.434Z,64.00
2017-10-04T20:31:32.846Z,63.90
2017-10-04T20:34:01.917Z,63.90
2017-10-04T20:36:29.643Z,64.70
2017-10-04T20:38:57.245Z,64.70
2017-10-04T20:41:26.121Z,64.80
2017-10-04T20:43:54.478Z,65.10
2017-10-04T20:46:22.113Z,65.10
2017-10-04T20:48:49.717Z,64.70
2017-10-04T20:51:19.327Z,64.50
2017-10-04T20:53:47.847Z,65.60
2017-10-04T20:56:15.484Z,65.50
2017-10-04T20:58:43.089Z,66.00
2017-10-04T21:01:10.717Z,65.80
2017-10-04T21:03:38.321Z,66.00
2017-10-04T21:06:07.075Z,65.90
2017-10-04T21:08:35.084Z,65.90
2017-10-04T21:11:02.673Z,65.30
2017-10-04T21:13:32.364Z,65.50
2017-10-04T21:16:00.942Z,66.50
2017-10-04T21:18:29.457Z,65.80
2017-10-04T21:20:58.264Z,65.80
2017-10-04T21:23:25.884Z,65.80
2017-10-04T21:25:53.484Z,66.00
2017-10-04T21:28:23.444Z,65.90
2017-10-04T21:30:51.045Z,66.30
2017-10-04T21:33:18.677Z,66.40
2017-10-04T21:35:46.277Z,66.50
2017-10-04T21:38:15.315Z,67.40
2017-10-04T21:40:43.712Z,67.10
2017-10-04T21:43:12.196Z,67.10
2017-10-04T21:45:40.607Z,66.00
2017-10-04T21:48:08.220Z,65.90
2017-10-04T21:50:35.841Z,66.60
2017-10-04T21:53:03.431Z,67.10
2017-10-04T21:55:31.064Z,67.30
2017-10-04T21:57:59.443Z,67.00
2017-10-04T22:00:27.097Z,66.60
2017-10-04T22:02:54.699Z,66.60
2017-10-04T22:05:22.536Z,66.80
2017-10-04T22:07:50.136Z,67.10
2017-10-04T22:10:17.757Z,67.00
2017-10-04T22:12:45.886Z,67.00
2017-10-04T22:15:17.932Z,67.80
2017-10-04T22:17:45.529Z,67.20
2017-10-04T22:20:13.162Z,68.20
2017-10-04T22:22:40.764Z,68.00
2017-10-04T22:25:08.472Z,68.40
2017-10-04T22:27:36.061Z,68.40
2017-10-04T22:30:03.678Z,68.50
2017-10-04T22:32:31.298Z,68.80
2017-10-04T22:34:58.895Z,68.70
2017-10-04T22:37:26.516Z,67.60
2017-10-04T22:39:54.889Z,68.40
2017-10-04T22:42:23.278Z,68.00
2017-10-04T22:44:50.890Z,68.00
2017-10-04T22:47:18.525Z,68.20
2017-10-04T22:49:46.123Z,68.90
2017-10-04T22:52:13.749Z,68.90
2017-10-04T22:54:41.385Z,68.60
2017-10-04T22:57:09.014Z,68.30
2017-10-04T22:59:36.617Z,69.00
2017-10-04T23:02:04.254Z,69.00
2017-10-04T23:04:33.859Z,69.40
2017-10-04T23:07:02.253Z,69.30
2017-10-04T23:09:29.894Z,69.20
2017-10-04T23:11:58.284Z,70.00
2017-10-04T23:14:26.672Z,70.10
2017-10-04T23:16:55.614Z,70.00
2017-10-04T23:19:23.275Z,70.00
2017-10-04T23:21:50.934Z,69.90
2017-10-04T23:24:18.799Z,69.50
2017-10-04T23:26:46.396Z,69.60
2017-10-04T23:29:14.025Z,70.00
2017-10-04T23:31:41.624Z,69.90
2017-10-04T23:34:10.022Z,70.00
2017-10-04T23:36:37.615Z,69.90
2017-10-04T23:39:05.253Z,70.30
2017-10-04T23:41:33.991Z,70.50
2017-10-04T23:44:01.944Z,71.40
2017-10-04T23:46:29.554Z,71.00
2017-10-04T23:48:57.194Z,72.10
2017-10-04T23:51:24.803Z,72.10
2017-10-04T23:53:52.422Z,70.90
2017-10-04T23:56:20.780Z,71.00
2017-10-04T23:58:48.430Z,71.00
